createdAt,value
2018-04-19T00:00:12.873Z,1047.77
2018-04-19T00:01:12.865Z,1047.79
2018-04-19T00:02:12.864Z,1047.83
2018-04-19T00:03:12.853Z,1047.84
2018-04-19T00:04:12.845Z,1047.81
2018-04-19T00:05:12.838Z,1047.84
2018-04-19T00:06:12.832Z,1047.81
2018-04-19T00:07:12.823Z,1047.79
2018-04-19T00:08:12.817Z,1047.75
2018-04-19T00:09:12.811Z,1047.75
2018-04-19T00:10:12.804Z,1047.75
2018-04-19T00:11:12.799Z,1047.74
2018-04-19T00:12:12.789Z,1047.72
2018-04-19T00:13:12.783Z,1047.71
2018-04-19T00:14:12.774Z,1047.75
2018-04-19T00:15:12.769Z,1047.76
2018-04-19T00:16:12.761Z,1047.77
2018-04-19T00:17:12.754Z,1047.76
2018-04-19T00:18:12.746Z,1047.8
2018-04-19T00:19:12.740Z,1047.79
2018-04-19T00:20:12.734Z,1047.77
2018-04-19T00:21:12.726Z,1047.83
2018-04-19T00:22:12.717Z,1047.8
2018-04-19T00:23:12.711Z,1047.81
2018-04-19T00:24:12.704Z,1047.81
2018-04-19T00:25:12.699Z,1047.8
2018-04-19T00:26:12.689Z,1047.8
2018-04-19T00:27:12.683Z,1047.79
2018-04-19T00:28:12.676Z,1047.79
2018-04-19T00:29:12.668Z,1047.81
2018-04-19T00:30:12.661Z,1047.82
2018-04-19T00:31:12.654Z,1047.77
2018-04-19T00:32:12.647Z,1047.83
2018-04-19T00:33:12.640Z,1047.83
2018-04-19T00:34:12.632Z,1047.83
2018-04-19T00:35:12.626Z,1047.83
2018-04-19T00:36:12.619Z,1047.84
2018-04-19T00:37:12.611Z,1047.81
2018-04-19T00:38:12.605Z,1047.85
2018-04-19T00:39:12.600Z,1047.86
2018-04-19T00:40:12.591Z,1047.88
2018-04-19T00:41:12.586Z,1047.86
2018-04-19T00:42:12.576Z,1047.86
2018-04-19T00:43:12.570Z,1047.88
2018-04-19T00:44:12.562Z,1047.86
2018-04-19T00:45:12.555Z,1047.91
2018-04-19T00:46:12.558Z,1047.93
2018-04-19T00:47:12.540Z,1047.89
2018-04-19T00:48:12.533Z,1047.9
2018-04-19T00:49:12.526Z,1047.87
2018-04-19T00:50:12.519Z,1047.88
2018-04-19T00:51:12.512Z,1047.86
2018-04-19T00:52:12.505Z,1047.83
2018-04-19T00:53:12.749Z,1047.85
2018-04-19T00:54:12.491Z,1047.84
2018-04-19T00:55:12.483Z,1047.86
2018-04-19T00:56:12.479Z,1047.87
2018-04-19T00:57:12.470Z,1047.87
2018-04-19T00:58:12.462Z,1047.83
2018-04-19T00:59:12.454Z,1047.84
2018-04-19T01:00:12.447Z,1047.82
2018-04-19T01:01:12.440Z,1047.8
2018-04-19T01:02:12.449Z,1047.77
2018-04-19T01:03:12.425Z,1047.74
2018-04-19T01:04:12.456Z,1047.79
2018-04-19T01:05:12.412Z,1047.8
2018-04-19T01:06:12.404Z,1047.76
2018-04-19T01:07:12.396Z,1047.78
2018-04-19T01:08:12.389Z,1047.77
2018-04-19T01:09:12.384Z,1047.75
2018-04-19T01:10:12.383Z,1047.78
2018-04-19T01:11:12.368Z,1047.78
2018-04-19T01:12:12.361Z,1047.72
2018-04-19T01:13:12.353Z,1047.74
2018-04-19T01:14:12.346Z,1047.76
2018-04-19T01:15:12.339Z,1047.75
2018-04-19T01:16:12.332Z,1047.75
2018-04-19T01:17:12.327Z,1047.71
2018-04-19T01:18:12.319Z,1047.72
2018-04-19T01:19:12.312Z,1047.7
2018-04-19T01:20:12.303Z,1047.68
2018-04-19T01:21:12.295Z,1047.71
2018-04-19T01:22:12.289Z,1047.69
2018-04-19T01:23:12.282Z,1047.69
2018-04-19T01:24:12.273Z,1047.67
2018-04-19T01:25:12.266Z,1047.66
2018-04-19T01:26:12.259Z,1047.68
2018-04-19T01:27:12.253Z,1047.67
2018-04-19T01:28:12.246Z,1047.63
2018-04-19T01:29:12.239Z,1047.67
2018-04-19T01:30:12.231Z,1047.68
2018-04-19T01:31:12.224Z,1047.68
2018-04-19T01:32:12.217Z,1047.67
2018-04-19T01:33:12.210Z,1047.67
2018-04-19T01:34:12.203Z,1047.66
2018-04-19T01:35:12.194Z,1047.66
2018-04-19T01:36:12.187Z,1047.66
2018-04-19T01:37:12.181Z,1047.65
2018-04-19T01:38:12.173Z,1047.67
2018-04-19T01:39:12.172Z,1047.67
2018-04-19T01:40:12.159Z,1047.64
2018-04-19T01:41:12.152Z,1047.65
2018-04-19T01:42:12.143Z,1047.64
2018-04-19T01:43:12.142Z,1047.68
2018-04-19T01:44:12.128Z,1047.65
2018-04-19T01:45:12.134Z,1047.63
2018-04-19T01:46:12.120Z,1047.66
2018-04-19T01:47:12.106Z,1047.63
2018-04-19T01:48:12.099Z,1047.61
2018-04-19T01:49:12.091Z,1047.63
2018-04-19T01:50:12.084Z,1047.63
2018-04-19T01:51:12.077Z,1047.62
2018-04-19T01:52:12.087Z,1047.66
2018-04-19T01:53:12.061Z,1047.61
2018-04-19T01:54:12.055Z,1047.61
2018-04-19T01:55:12.048Z,1047.6
2018-04-19T01:56:12.041Z,1047.64
2018-04-19T01:57:12.033Z,1047.63
2018-04-19T01:58:12.025Z,1047.59
2018-04-19T01:59:12.018Z,1047.6
2018-04-19T02:00:12.010Z,1047.57
2018-04-19T02:01:12.002Z,1047.56
2018-04-19T02:02:11.996Z,1047.54
2018-04-19T02:03:11.988Z,1047.56
2018-04-19T02:04:11.980Z,1047.53
2018-04-19T02:05:11.973Z,1047.52
2018-04-19T02:06:11.966Z,1047.52
2018-04-19T02:07:11.981Z,1047.49
2018-04-19T02:08:11.951Z,1047.54
2018-04-19T02:09:11.943Z,1047.5
2018-04-19T02:10:11.935Z,1047.5
2018-04-19T02:11:11.927Z,1047.47
2018-04-19T02:12:11.921Z,1047.46
2018-04-19T02:13:11.914Z,1047.49
2018-04-19T02:14:11.906Z,1047.49
2018-04-19T02:15:11.903Z,1047.48
2018-04-19T02:16:11.894Z,1047.48
2018-04-19T02:17:11.890Z,1047.47
2018-04-19T02:18:11.877Z,1047.51
2018-04-19T02:19:11.955Z,1047.51
2018-04-19T02:20:11.860Z,1047.52
2018-04-19T02:21:11.855Z,1047.5
2018-04-19T02:22:11.844Z,1047.55
2018-04-19T02:23:11.839Z,1047.5
2018-04-19T02:24:11.835Z,1047.46
2018-04-19T02:25:11.823Z,1047.48
2018-04-19T02:26:11.815Z,1047.43
2018-04-19T02:27:11.809Z,1047.41
2018-04-19T02:28:11.800Z,1047.42
2018-04-19T02:29:11.793Z,1047.43
2018-04-19T02:30:11.786Z,1047.42
2018-04-19T02:31:11.780Z,1047.46
2018-04-19T02:32:11.771Z,1047.43
2018-04-19T02:33:11.763Z,1047.47
2018-04-19T02:34:11.755Z,1047.45
2018-04-19T02:35:11.748Z,1047.46
2018-04-19T02:36:11.740Z,1047.41
2018-04-19T02:37:11.732Z,1047.45
2018-04-19T02:38:11.725Z,1047.44
2018-04-19T02:39:11.723Z,1047.43
2018-04-19T02:40:11.710Z,1047.42
2018-04-19T02:41:11.702Z,1047.42
2018-04-19T02:42:11.694Z,1047.42
2018-04-19T02:43:11.686Z,1047.43
2018-04-19T02:44:11.678Z,1047.42
2018-04-19T02:45:11.671Z,1047.42
2018-04-19T02:46:11.664Z,1047.4
2018-04-19T02:47:11.658Z,1047.4
2018-04-19T02:48:11.647Z,1047.37
2018-04-19T02:49:11.641Z,1047.36
2018-04-19T02:50:11.633Z,1047.36
2018-04-19T02:51:11.625Z,1047.37
2018-04-19T02:52:11.617Z,1047.39
2018-04-19T02:53:11.610Z,1047.38
2018-04-19T02:54:11.602Z,1047.39
2018-04-19T02:55:11.594Z,1047.39
2018-04-19T02:56:11.587Z,1047.41
2018-04-19T02:57:11.580Z,1047.42
2018-04-19T02:58:11.576Z,1047.36
2018-04-19T02:59:11.566Z,1047.37
2018-04-19T03:00:11.556Z,1047.35
2018-04-19T03:01:11.549Z,1047.39
2018-04-19T03:02:11.540Z,1047.44
2018-04-19T03:03:11.535Z,1047.41
2018-04-19T03:04:11.528Z,1047.41
2018-04-19T03:05:11.520Z,1047.44
2018-04-19T03:06:11.519Z,1047.47
2018-04-19T03:07:11.507Z,1047.45
2018-04-19T03:08:11.500Z,1047.44
2018-04-19T03:09:11.491Z,1047.44
2018-04-19T03:10:11.479Z,1047.44
2018-04-19T03:11:11.473Z,1047.44
2018-04-19T03:12:11.487Z,1047.43
2018-04-19T03:13:11.456Z,1047.43
2018-04-19T03:14:11.448Z,1047.46
2018-04-19T03:15:11.441Z,1047.46
2018-04-19T03:16:11.433Z,1047.49
2018-04-19T03:17:11.425Z,1047.51
2018-04-19T03:18:11.417Z,1047.46
2018-04-19T03:19:11.414Z,1047.49
2018-04-19T03:20:11.409Z,1047.47
2018-04-19T03:21:11.393Z,1047.49
2018-04-19T03:22:11.386Z,1047.5
2018-04-19T03:23:11.379Z,1047.52
2018-04-19T03:24:11.370Z,1047.51
2018-04-19T03:25:11.363Z,1047.49
2018-04-19T03:26:11.356Z,1047.52
2018-04-19T03:27:11.358Z,1047.52
2018-04-19T03:28:11.340Z,1047.52
2018-04-19T03:29:11.332Z,1047.52
2018-04-19T03:30:11.324Z,1047.54
2018-04-19T03:31:11.318Z,1047.54
2018-04-19T03:32:11.309Z,1047.55
2018-04-19T03:33:11.300Z,1047.52
2018-04-19T03:34:11.294Z,1047.51
2018-04-19T03:35:11.285Z,1047.54
2018-04-19T03:36:11.278Z,1047.52
2018-04-19T03:37:11.270Z,1047.52
2018-04-19T03:38:11.261Z,1047.53
2018-04-19T03:39:11.254Z,1047.49
2018-04-19T03:40:11.247Z,1047.5
2018-04-19T03:41:11.241Z,1047.49
2018-04-19T03:42:11.230Z,1047.48
2018-04-19T03:43:11.224Z,1047.51
2018-04-19T03:44:11.215Z,1047.52
2018-04-19T03:45:11.208Z,1047.52
2018-04-19T03:46:11.199Z,1047.53
2018-04-19T03:47:11.191Z,1047.53
2018-04-19T03:48:11.184Z,1047.53
2018-04-19T03:49:11.175Z,1047.52
2018-04-19T03:50:11.171Z,1047.52
2018-04-19T03:51:11.159Z,1047.51
2018-04-19T03:52:11.153Z,1047.53
2018-04-19T03:53:11.145Z,1047.53
2018-04-19T03:54:11.136Z,1047.49
2018-04-19T03:55:11.129Z,1047.5
2018-04-19T03:56:11.121Z,1047.49
2018-04-19T03:57:11.111Z,1047.52
2018-04-19T03:58:11.104Z,1047.5
2018-04-19T03:59:11.096Z,1047.49
2018-04-19T04:00:11.340Z,1047.5
2018-04-19T04:01:11.151Z,1047.5
2018-04-19T04:02:11.080Z,1047.49
2018-04-19T04:03:11.071Z,1047.44
2018-04-19T04:04:11.057Z,1047.43
2018-04-19T04:05:11.049Z,1047.44
2018-04-19T04:06:11.042Z,1047.39
2018-04-19T04:07:11.034Z,1047.34
2018-04-19T04:08:11.025Z,1047.3
2018-04-19T04:09:11.019Z,1047.27
2018-04-19T04:10:11.013Z,1047.25
2018-04-19T04:11:11.003Z,1047.25
2018-04-19T04:12:10.995Z,1047.27
2018-04-19T04:13:10.986Z,1047.28
2018-04-19T04:14:10.979Z,1047.26
2018-04-19T04:15:10.976Z,1047.26
2018-04-19T04:16:10.964Z,1047.25
2018-04-19T04:17:10.955Z,1047.21
2018-04-19T04:18:10.949Z,1047.14
2018-04-19T04:19:10.939Z,1047.06
2018-04-19T04:20:10.933Z,1047.02
2018-04-19T04:21:10.925Z,1046.96
2018-04-19T04:22:10.917Z,1046.86
2018-04-19T04:23:10.909Z,1046.81
2018-04-19T04:24:10.902Z,1046.78
2018-04-19T04:25:10.899Z,1046.7
2018-04-19T04:26:10.887Z,1046.62
2018-04-19T04:27:10.879Z,1046.54
2018-04-19T04:28:10.871Z,1046.46
2018-04-19T04:29:10.864Z,1046.38
2018-04-19T04:30:10.857Z,1046.37
2018-04-19T04:31:10.876Z,1046.27
2018-04-19T04:32:10.843Z,1046.21
2018-04-19T04:33:10.837Z,1046.13
2018-04-19T04:34:10.828Z,1046.1
2018-04-19T04:35:10.822Z,1046
2018-04-19T04:36:10.814Z,1045.89
2018-04-19T04:37:10.809Z,1045.83
2018-04-19T04:38:10.801Z,1045.72
2018-04-19T04:39:10.798Z,1045.64
2018-04-19T04:40:10.789Z,1045.63
2018-04-19T04:41:10.784Z,1045.5
2018-04-19T04:42:10.776Z,1045.42
2018-04-19T04:43:10.769Z,1045.25
2018-04-19T04:44:10.764Z,1045.18
2018-04-19T04:45:10.756Z,1045.07
2018-04-19T04:46:10.752Z,1044.96
2018-04-19T04:47:10.745Z,1044.89
2018-04-19T04:48:10.740Z,1044.78
2018-04-19T04:49:10.737Z,1044.67
2018-04-19T04:50:10.733Z,1044.55
2018-04-19T04:51:10.724Z,1044.44
2018-04-19T04:52:10.717Z,1044.37
2018-04-19T04:53:10.713Z,1044.28
2018-04-19T04:54:10.707Z,1044.16
2018-04-19T04:55:10.704Z,1044.11
2018-04-19T04:56:10.698Z,1043.9
2018-04-19T04:57:10.693Z,1043.88
2018-04-19T04:58:10.689Z,1043.78
2018-04-19T04:59:10.684Z,1043.72
2018-04-19T05:00:10.723Z,1043.6
2018-04-19T05:01:10.676Z,1043.51
2018-04-19T05:02:10.674Z,1043.39
2018-04-19T05:03:10.668Z,1043.35
2018-04-19T05:04:10.665Z,1043.24
2018-04-19T05:05:10.669Z,1043.17
2018-04-19T05:06:10.658Z,1043.04
2018-04-19T05:07:10.654Z,1042.91
2018-04-19T05:08:10.652Z,1042.8
2018-04-19T05:09:10.648Z,1042.71
2018-04-19T05:10:10.647Z,1042.57
2018-04-19T05:11:10.644Z,1042.49
2018-04-19T05:12:10.640Z,1042.34
2018-04-19T05:13:10.639Z,1042.28
2018-04-19T05:14:10.634Z,1042.19
2018-04-19T05:15:10.634Z,1042.14
2018-04-19T05:16:10.630Z,1042.04
2018-04-19T05:17:10.628Z,1041.97
2018-04-19T05:18:10.629Z,1041.84
2018-04-19T05:19:10.625Z,1041.78
2018-04-19T05:20:10.624Z,1041.74
2018-04-19T05:21:10.622Z,1041.6
2018-04-19T05:22:10.622Z,1041.56
2018-04-19T05:23:10.620Z,1041.5
2018-04-19T05:24:10.620Z,1041.44
2018-04-19T05:25:10.618Z,1041.35
2018-04-19T05:26:10.626Z,1041.29
2018-04-19T05:27:10.621Z,1041.27
2018-04-19T05:28:10.618Z,1041.19
2018-04-19T05:29:10.618Z,1041.12
2018-04-19T05:30:10.618Z,1041.06
2018-04-19T05:31:10.619Z,1041.04
2018-04-19T05:32:10.622Z,1040.99
2018-04-19T05:33:10.619Z,1040.96
2018-04-19T05:34:10.620Z,1040.95
2018-04-19T05:35:10.622Z,1040.93
2018-04-19T05:36:10.624Z,1040.95
2018-04-19T05:37:10.700Z,1040.84
2018-04-19T05:38:10.629Z,1040.74
2018-04-19T05:39:10.627Z,1040.67
2018-04-19T05:40:10.630Z,1040.57
2018-04-19T05:41:10.640Z,1040.5
2018-04-19T05:42:10.634Z,1040.43
2018-04-19T05:43:10.635Z,1040.42
2018-04-19T05:44:10.638Z,1040.41
2018-04-19T05:45:10.642Z,1040.31
2018-04-19T05:46:10.645Z,1040.26
2018-04-19T05:47:10.647Z,1040.24
2018-04-19T05:48:10.649Z,1040.2
2018-04-19T05:49:10.661Z,1040.19
2018-04-19T05:50:10.662Z,1040.12
2018-04-19T05:51:10.660Z,1040.07
2018-04-19T05:52:10.664Z,1040.05
2018-04-19T05:53:10.668Z,1040
2018-04-19T05:54:10.672Z,1039.93
2018-04-19T05:55:10.678Z,1039.92
2018-04-19T05:56:10.681Z,1039.95
2018-04-19T05:57:10.686Z,1039.87
2018-04-19T05:58:10.689Z,1039.82
2018-04-19T05:59:10.700Z,1039.75
2018-04-19T06:00:10.701Z,1039.68
2018-04-19T06:01:10.717Z,1039.6
2018-04-19T06:02:10.709Z,1039.57
2018-04-19T06:03:10.779Z,1039.5
2018-04-19T06:04:10.720Z,1039.45
2018-04-19T06:05:10.725Z,1039.41
2018-04-19T06:06:10.731Z,1039.36
2018-04-19T06:07:10.738Z,1039.29
2018-04-19T06:08:10.748Z,1039.28
2018-04-19T06:09:10.749Z,1039.2
2018-04-19T06:10:10.755Z,1039.15
2018-04-19T06:11:10.762Z,1039.14
2018-04-19T06:12:10.776Z,1039.1
2018-04-19T06:13:10.775Z,1039.01
2018-04-19T06:14:10.785Z,1038.98
2018-04-19T06:15:10.815Z,1038.91
2018-04-19T06:16:10.795Z,1038.89
2018-04-19T06:17:10.803Z,1038.83
2018-04-19T06:18:10.809Z,1038.82
2018-04-19T06:19:10.817Z,1038.77
2018-04-19T06:20:10.824Z,1038.72
2018-04-19T06:21:10.831Z,1038.7
2018-04-19T06:22:10.839Z,1038.64
2018-04-19T06:23:10.846Z,1038.52
2018-04-19T06:24:10.854Z,1038.36
2018-04-19T06:25:10.876Z,1038.23
2018-04-19T06:26:10.871Z,1038.18
2018-04-19T06:27:10.877Z,1038.08
2018-04-19T06:28:10.885Z,1038
2018-04-19T06:29:10.903Z,1037.96
2018-04-19T06:30:10.916Z,1037.94
2018-04-19T06:31:10.915Z,1037.93
2018-04-19T06:32:10.919Z,1037.89
2018-04-19T06:33:10.929Z,1037.87
2018-04-19T06:34:10.940Z,1037.93
2018-04-19T06:35:10.947Z,1038
2018-04-19T06:36:10.997Z,1037.9
2018-04-19T06:37:10.966Z,1037.8
2018-04-19T06:38:10.978Z,1037.68
2018-04-19T06:39:10.984Z,1037.68
2018-04-19T06:40:10.994Z,1037.62
2018-04-19T06:41:11.004Z,1037.58
2018-04-19T06:42:11.012Z,1037.55
2018-04-19T06:43:11.023Z,1037.53
2018-04-19T06:44:11.033Z,1037.58
2018-04-19T06:45:11.043Z,1037.6
2018-04-19T06:46:11.053Z,1037.6
2018-04-19T06:47:11.064Z,1037.55
2018-04-19T06:48:11.075Z,1037.48
2018-04-19T06:49:11.085Z,1037.47
2018-04-19T06:50:11.099Z,1037.39
2018-04-19T06:51:11.107Z,1037.37
2018-04-19T06:52:11.124Z,1037.28
2018-04-19T06:53:11.129Z,1037.24
2018-04-19T06:54:11.140Z,1037.2
2018-04-19T06:55:11.151Z,1037.15
2018-04-19T06:56:11.161Z,1037.1
2018-04-19T06:57:11.173Z,1037.09
2018-04-19T06:58:11.184Z,1037.05
2018-04-19T06:59:11.196Z,1037.03
2018-04-19T07:00:11.206Z,1036.99
2018-04-19T07:01:11.219Z,1036.98
2018-04-19T07:02:11.230Z,1036.96
2018-04-19T07:03:11.243Z,1036.94
2018-04-19T07:04:11.258Z,1036.94
2018-04-19T07:05:11.265Z,1036.85
2018-04-19T07:06:11.277Z,1036.86
2018-04-19T07:07:11.544Z,1036.85
2018-04-19T07:09:11.313Z,1036.56
2018-04-19T07:11:11.335Z,1036.45
2018-04-19T07:12:11.348Z,1036.42
2018-04-19T07:13:11.364Z,1036.46
2018-04-19T07:14:11.375Z,1036.4
2018-04-19T07:15:11.383Z,1036.43
2018-04-19T07:16:11.395Z,1036.43
2018-04-19T07:17:11.408Z,1036.42
2018-04-19T07:18:11.429Z,1036.4
2018-04-19T07:19:11.432Z,1036.43
2018-04-19T07:20:11.452Z,1036.4
2018-04-19T07:21:11.456Z,1036.44
2018-04-19T07:22:11.468Z,1036.43
2018-04-19T07:23:11.481Z,1036.41
2018-04-19T07:24:11.494Z,1036.44
2018-04-19T07:25:11.507Z,1036.52
2018-04-19T07:26:11.519Z,1036.54
2018-04-19T07:27:11.532Z,1036.51
2018-04-19T07:28:11.545Z,1036.57
2018-04-19T07:29:11.557Z,1036.59
2018-04-19T07:30:11.570Z,1036.56
2018-04-19T07:31:11.584Z,1036.56
2018-04-19T07:32:11.635Z,1036.57
2018-04-19T07:33:11.614Z,1036.53
2018-04-19T07:34:11.623Z,1036.57
2018-04-19T07:35:11.637Z,1036.52
2018-04-19T07:36:11.653Z,1036.43
2018-04-19T07:37:11.663Z,1036.36
2018-04-19T07:38:11.930Z,1036.34
2018-04-19T07:39:11.692Z,1036.28
2018-04-19T07:40:11.704Z,1036.18
2018-04-19T07:41:11.718Z,1036.17
2018-04-19T07:42:11.733Z,1036.05
2018-04-19T07:43:11.761Z,1036.04
2018-04-19T07:44:11.778Z,1035.88
2018-04-19T07:45:11.786Z,1035.83
2018-04-19T07:46:11.789Z,1035.83
2018-04-19T07:47:11.805Z,1035.68
2018-04-19T07:48:11.869Z,1035.51
2018-04-19T07:49:11.836Z,1035.37
2018-04-19T07:50:11.853Z,1035.35
2018-04-19T07:51:11.864Z,1035.34
2018-04-19T07:52:11.880Z,1035.31
2018-04-19T07:53:11.900Z,1035.26
2018-04-19T07:54:11.919Z,1035.18
2018-04-19T07:55:11.935Z,1035.16
2018-04-19T07:56:11.952Z,1035.19
2018-04-19T07:57:11.969Z,1035.2
2018-04-19T07:58:11.975Z,1035.19
2018-04-19T07:59:11.996Z,1035.23
2018-04-19T08:00:12.009Z,1035.24
2018-04-19T08:01:12.026Z,1035.32
2018-04-19T08:02:12.034Z,1035.55
2018-04-19T08:03:12.050Z,1035.92
2018-04-19T08:04:12.064Z,1036.22
2018-04-19T08:05:12.126Z,1036.46
2018-04-19T08:06:12.107Z,1036.59
2018-04-19T08:07:12.110Z,1036.68
2018-04-19T08:08:12.124Z,1036.79
2018-04-19T08:09:12.387Z,1036.88
2018-04-19T08:10:12.155Z,1036.93
2018-04-19T08:11:12.185Z,1037.02
2018-04-19T08:12:12.186Z,1037.09
2018-04-19T08:13:12.195Z,1037.18
2018-04-19T08:14:12.212Z,1037.17
2018-04-19T08:15:12.225Z,1037.14
2018-04-19T08:16:12.238Z,1037.16
2018-04-19T08:17:12.249Z,1037.07
2018-04-19T08:18:12.262Z,1036.99
2018-04-19T08:19:12.278Z,1037
2018-04-19T08:20:12.297Z,1037.04
2018-04-19T08:21:12.302Z,1037.14
2018-04-19T08:22:12.328Z,1037.16
2018-04-19T08:23:12.339Z,1037.2
2018-04-19T08:24:12.346Z,1037.19
2018-04-19T08:25:12.354Z,1037.15
2018-04-19T08:26:12.375Z,1037.27
2018-04-19T08:27:12.380Z,1037.69
2018-04-19T08:28:12.398Z,1038.3
2018-04-19T08:29:12.409Z,1038.9
2018-04-19T08:30:12.418Z,1039.4
2018-04-19T08:31:12.429Z,1039.83
2018-04-19T08:32:12.446Z,1040.25
2018-04-19T08:33:12.452Z,1040.62
2018-04-19T08:34:12.464Z,1040.85
2018-04-19T08:35:12.473Z,1041.12
2018-04-19T08:36:12.493Z,1041.28
2018-04-19T08:37:12.496Z,1041.44
2018-04-19T08:38:12.511Z,1041.61
2018-04-19T08:39:12.513Z,1041.8
2018-04-19T08:40:12.523Z,1041.88
2018-04-19T08:41:12.533Z,1041.99
2018-04-19T08:42:12.558Z,1042.09
2018-04-19T08:43:13.569Z,1042.31
2018-04-19T08:44:12.578Z,1042.45
2018-04-19T08:45:12.582Z,1042.67
2018-04-19T08:46:12.571Z,1042.74
2018-04-19T08:47:12.578Z,1042.85
2018-04-19T08:48:12.585Z,1042.93
2018-04-19T08:49:12.624Z,1042.94
2018-04-19T08:50:12.601Z,1042.99
2018-04-19T08:51:12.607Z,1043
2018-04-19T08:52:12.610Z,1043.01
2018-04-19T08:53:12.621Z,1043.05
2018-04-19T08:54:12.627Z,1043.08
2018-04-19T08:55:12.627Z,1043.09
2018-04-19T08:56:12.641Z,1043.17
2018-04-19T08:57:12.636Z,1043.28
2018-04-19T08:58:12.642Z,1043.32
2018-04-19T08:59:12.646Z,1043.35
2018-04-19T09:00:12.657Z,1043.35
2018-04-19T09:01:12.655Z,1043.35
2018-04-19T09:02:12.659Z,1043.4
2018-04-19T09:03:12.663Z,1043.36
2018-04-19T09:04:12.667Z,1043.4
2018-04-19T09:05:12.671Z,1043.44
2018-04-19T09:06:12.676Z,1043.46
2018-04-19T09:07:12.679Z,1043.45
2018-04-19T09:08:12.681Z,1043.47
2018-04-19T09:09:12.686Z,1043.53
2018-04-19T09:10:12.690Z,1043.57
2018-04-19T09:11:12.696Z,1043.58
2018-04-19T09:12:12.696Z,1043.58
2018-04-19T09:13:12.699Z,1043.6
2018-04-19T09:14:12.706Z,1043.6
2018-04-19T09:15:12.706Z,1043.66
2018-04-19T09:16:12.709Z,1043.72
2018-04-19T09:17:12.711Z,1043.7
2018-04-19T09:18:12.713Z,1043.69
2018-04-19T09:19:12.716Z,1043.7
2018-04-19T09:20:12.718Z,1043.7
2018-04-19T09:21:12.724Z,1043.78
2018-04-19T09:22:12.725Z,1043.77
2018-04-19T09:23:12.789Z,1043.81
2018-04-19T09:24:12.730Z,1043.75
2018-04-19T09:25:12.733Z,1043.74
2018-04-19T09:26:12.738Z,1043.74
2018-04-19T09:27:12.738Z,1043.74
2018-04-19T09:28:12.755Z,1043.74
2018-04-19T09:29:12.742Z,1043.75
2018-04-19T09:30:12.745Z,1043.72
2018-04-19T09:31:12.751Z,1043.69
2018-04-19T09:32:12.753Z,1043.66
2018-04-19T09:33:12.751Z,1043.6
2018-04-19T09:34:12.824Z,1043.6
2018-04-19T09:35:12.756Z,1043.59
2018-04-19T09:36:12.758Z,1043.55
2018-04-19T09:37:12.766Z,1043.55
2018-04-19T09:38:12.765Z,1043.51
2018-04-19T09:39:12.768Z,1043.54
2018-04-19T09:40:12.768Z,1043.55
2018-04-19T09:41:12.768Z,1043.57
2018-04-19T09:42:12.771Z,1043.59
2018-04-19T09:43:12.774Z,1043.59
2018-04-19T09:44:12.775Z,1043.57
2018-04-19T09:45:12.778Z,1043.57
2018-04-19T09:46:12.780Z,1043.53
2018-04-19T09:47:12.783Z,1043.52
2018-04-19T09:48:12.785Z,1043.52
2018-04-19T09:49:12.789Z,1043.46
2018-04-19T09:50:12.790Z,1043.48
2018-04-19T09:51:12.792Z,1043.45
2018-04-19T09:52:12.792Z,1043.48
2018-04-19T09:53:12.795Z,1043.45
2018-04-19T09:54:12.964Z,1043.48
2018-04-19T09:55:12.797Z,1043.46
2018-04-19T09:56:12.800Z,1043.46
2018-04-19T09:57:12.803Z,1043.43
2018-04-19T09:58:12.822Z,1043.46
2018-04-19T09:59:12.809Z,1043.45
2018-04-19T10:00:12.808Z,1043.47
2018-04-19T10:01:12.817Z,1043.44
2018-04-19T10:02:12.813Z,1043.43
2018-04-19T10:03:12.815Z,1043.4
2018-04-19T10:04:12.865Z,1043.35
2018-04-19T10:05:12.820Z,1043.35
2018-04-19T10:06:12.822Z,1043.3
2018-04-19T10:07:12.826Z,1043.31
2018-04-19T10:08:12.825Z,1043.31
2018-04-19T10:09:12.828Z,1043.32
2018-04-19T10:10:12.850Z,1043.34
2018-04-19T10:11:12.833Z,1043.32
2018-04-19T10:12:12.858Z,1043.33
2018-04-19T10:13:12.837Z,1043.32
2018-04-19T10:14:12.858Z,1043.28
2018-04-19T10:15:12.841Z,1043.28
2018-04-19T10:16:12.844Z,1043.27
2018-04-19T10:17:12.845Z,1043.3
2018-04-19T10:18:12.848Z,1043.25
2018-04-19T10:19:12.850Z,1043.28
2018-04-19T10:20:12.853Z,1043.32
2018-04-19T10:21:12.886Z,1043.31
2018-04-19T10:22:12.856Z,1043.31
2018-04-19T10:23:12.860Z,1043.37
2018-04-19T10:24:12.873Z,1043.31
2018-04-19T10:25:12.864Z,1043.26
2018-04-19T10:26:12.867Z,1043.22
2018-04-19T10:27:12.877Z,1043.21
2018-04-19T10:28:12.871Z,1043.22
2018-04-19T10:29:12.874Z,1043.24
2018-04-19T10:30:12.874Z,1043.27
2018-04-19T10:31:12.877Z,1043.22
2018-04-19T10:32:12.881Z,1043.22
2018-04-19T10:33:12.880Z,1043.24
2018-04-19T10:34:12.883Z,1043.2
2018-04-19T10:35:12.885Z,1043.2
2018-04-19T10:36:12.886Z,1043.16
2018-04-19T10:37:12.889Z,1043.15
2018-04-19T10:38:12.891Z,1043.12
2018-04-19T10:39:12.891Z,1043.12
2018-04-19T10:40:12.897Z,1043.13
2018-04-19T10:41:12.929Z,1043.17
2018-04-19T10:42:12.897Z,1043.18
2018-04-19T10:43:12.899Z,1043.16
2018-04-19T10:44:12.905Z,1043.12
2018-04-19T10:45:12.904Z,1043.13
2018-04-19T10:46:12.907Z,1043.12
2018-04-19T10:47:12.907Z,1043.17
2018-04-19T10:48:12.911Z,1043.16
2018-04-19T10:49:12.912Z,1043.15
2018-04-19T10:50:12.917Z,1043.16
2018-04-19T10:51:12.919Z,1043.2
2018-04-19T10:52:12.924Z,1043.23
2018-04-19T10:53:12.924Z,1043.22
2018-04-19T10:54:12.952Z,1043.19
2018-04-19T10:55:12.923Z,1043.19
2018-04-19T10:56:12.927Z,1043.19
2018-04-19T10:57:12.932Z,1043.13
2018-04-19T10:58:12.931Z,1043.14
2018-04-19T10:59:12.932Z,1043.13
2018-04-19T11:00:12.937Z,1043.11
2018-04-19T11:01:12.935Z,1043.12
2018-04-19T11:02:12.937Z,1043.14
2018-04-19T11:03:12.940Z,1043.06
2018-04-19T11:04:12.941Z,1043.06
2018-04-19T11:05:12.944Z,1043.06
2018-04-19T11:06:12.944Z,1043.05
2018-04-19T11:07:12.946Z,1043.09
2018-04-19T11:08:12.948Z,1043.11
2018-04-19T11:09:12.948Z,1043.07
2018-04-19T11:10:12.960Z,1043.08
2018-04-19T11:11:12.953Z,1043.07
2018-04-19T11:12:12.953Z,1043.07
2018-04-19T11:13:12.956Z,1043.02
2018-04-19T11:14:12.958Z,1043.01
2018-04-19T11:15:12.959Z,1043
2018-04-19T11:16:12.960Z,1042.98
2018-04-19T11:17:12.971Z,1042.99
2018-04-19T11:18:12.963Z,1042.96
2018-04-19T11:19:12.965Z,1042.96
2018-04-19T11:20:12.967Z,1042.94
2018-04-19T11:21:12.969Z,1042.92
2018-04-19T11:22:12.972Z,1042.94
2018-04-19T11:23:12.975Z,1042.94
2018-04-19T11:24:12.975Z,1042.96
2018-04-19T11:25:12.976Z,1042.9
2018-04-19T11:26:12.987Z,1042.9
2018-04-19T11:27:12.995Z,1042.84
2018-04-19T11:28:12.988Z,1042.84
2018-04-19T11:29:12.990Z,1042.85
2018-04-19T11:30:12.983Z,1042.81
2018-04-19T11:31:12.984Z,1042.79
2018-04-19T11:32:12.989Z,1042.74
2018-04-19T11:33:12.989Z,1042.73
2018-04-19T11:34:12.989Z,1042.79
2018-04-19T11:35:12.993Z,1042.75
2018-04-19T11:36:13.002Z,1042.75
2018-04-19T11:37:12.994Z,1042.73
2018-04-19T11:38:12.995Z,1042.74
2018-04-19T11:39:12.997Z,1042.73
2018-04-19T11:40:12.998Z,1042.67
2018-04-19T11:41:13.012Z,1042.69
2018-04-19T11:42:13.008Z,1042.62
2018-04-19T11:43:13.004Z,1042.58
2018-04-19T11:44:13.012Z,1042.58
2018-04-19T11:45:13.006Z,1042.53
2018-04-19T11:46:13.013Z,1042.52
2018-04-19T11:47:13.015Z,1042.53
2018-04-19T11:48:13.011Z,1042.54
2018-04-19T11:49:13.014Z,1042.52
2018-04-19T11:50:13.014Z,1042.53
2018-04-19T11:51:13.018Z,1042.6
2018-04-19T11:52:13.017Z,1042.57
2018-04-19T11:53:13.019Z,1042.53
2018-04-19T11:54:13.020Z,1042.52
2018-04-19T11:55:13.024Z,1042.49
2018-04-19T11:56:13.025Z,1042.49
2018-04-19T11:57:13.026Z,1042.49
2018-04-19T11:58:13.028Z,1042.53
2018-04-19T11:59:13.031Z,1042.44
2018-04-19T12:00:13.031Z,1042.46
2018-04-19T12:01:13.093Z,1042.5
2018-04-19T12:02:13.087Z,1042.49
2018-04-19T12:03:13.036Z,1042.48
2018-04-19T12:04:13.039Z,1042.48
2018-04-19T12:05:13.041Z,1042.49
2018-04-19T12:06:13.042Z,1042.42
2018-04-19T12:07:13.042Z,1042.4
2018-04-19T12:08:13.045Z,1042.4
2018-04-19T12:09:13.068Z,1042.4
2018-04-19T12:10:13.053Z,1042.35